AirNav  
 
 1004 users online  

OK37 Dog Iron Ranch Airport
Oologah, Oklahoma, USA

GOING TO OOLOGAH?


FAA INFORMATION EFFECTIVE 09 NOVEMBER 2017

Location

FAA Identifier: OK37
Lat/Long: 36-28-10.3300N / 095-40-03.9200W
36-28.172167N / 095-40.065333W
36.4695361 / -95.6677556
(estimated)
Elevation: 760 ft. / 232 m (estimated)
Variation: 05E (1995)
From city: 3 miles NE of OOLOGAH, OK
Time zone: UTC -6 (UTC -5 during Daylight Saving Time)
Zip code: 74080

Airport Operations

Airport use: Private use. Permission required prior to landing
Activation date: 09/1943
Control tower: no
ARTCC: KANSAS CITY CENTER
FSS: MC ALESTER FLIGHT SERVICE STATION
Attendance: UNATNDD
Wind indicator: yes
Segmented circle: no

Airport Communications

WX AWOS-3 at GCM (14 nm SE): 119.925 (918-343-0184)
WX ASOS at TUL (19 nm SW): PHONE 918-831-6772

Nearby radio navigation aids

VOR radial/distance  VOR name  Freq  Var
TULr012/17.4TULSA VORTAC114.4008E
BVOr134/27.6BARTLESVILLE VOR/DME117.9008E
GNPr018/36.0GLENPOOL VOR/DME110.6006E

 
NDB name  Hdg/Dist  Freq  Var  ID
WILLIAM POGUE047/29.536206EOWP --- .-- .--.
COFFEYVILLE182/37.721205ECFV -.-. ..-. ...-

Airport Services

Runway Information

Runway 17/35

Dimensions: 2000 x 25 ft. / 610 x 8 m
Surface: turf
RUNWAY 17  RUNWAY 35
Traffic pattern: leftleft

Airport Ownership and Management from official FAA records

Ownership: Privately-owned
Owner: WILL ROGERS MEMORIAL & BIRTHPLACE
PO BOX 157
CLAREMORE, OK 74018
Phone 918-341-0719
Manager: STEVE GRAGERT
PO BOX 157
CLAREMORE, OK 74018
Phone 918-341-0719

Instrument Procedures

There are no published instrument procedures at OK37.

Some nearby airports with instrument procedures:

KGCM - Claremore Regional Airport (14 nm SE)
KTUL - Tulsa International Airport (19 nm SW)
H71 - Mid-America Industrial Airport (22 nm SE)
KBVO - Bartlesville Municipal Airport (24 nm NW)
KOWP - William R Pogue Municipal Airport (29 nm SW)
 
Loc | Ops | Rwys | IFR | FBO | Links
Com | Nav | Svcs | Stats | Notes


 
Area around OK37 (Dog Iron Ranch Airport)
 
Road maps at: MapQuest Bing Google
 
Aerial photo
WARNING: Photo may not be current or correct
Aerial photo of OK37 (Dog Iron Ranch Airport)
Photo by Brent Butler
Photo taken 26-Aug-2010
looking North.

Do you have a better or more recent aerial photo of Dog Iron Ranch Airport that you would like to share? If so, please send us your photo.

 
Sectional chart

 
Airport distance calculator
Flying to Dog Iron Ranch Airport? Find the distance to fly.

From to OK37

Sunrise and sunset
Times for 24-Nov-2017
 Local
(UTC-6)
 Zulu
(UTC)
Morning civil twilight06:4212:42
Sunrise07:1013:10
Sunset17:0923:09
Evening civil twilight17:3623:36

Current date and time
Zulu (UTC)  24-Nov-2017 18:26:07
Local (UTC-6)  24-Nov-2017 12:26:07
 
METAR
KGCM 
14nm SE 
241755Z AUTO 18012KT 10SM CLR 20/02 A2982 RMK AO2
KTUL 
19nm SW 
241753Z 17015KT 10SM BKN250 21/02 A2980 RMK AO2 SLP085 T02060017 10206 20083 58020
KBVO 
24nm NW 
241753Z AUTO 16009KT 10SM CLR 22/02 A2977 RMK AO2 SLP075 T02170022 10222 20017 58024
TAF
KTUL 
19nm SW 
241720Z 2418/2518 17012G20KT P6SM SCT250 FM242300 18011KT P6SM SCT250 FM250900 01008KT P6SM SCT250
NOTAMs
Click for the latest NOTAMs
NOTAMs are issued by the DoD/FAA and will open in a separate window not controlled by AirNav.

 

 
 

Would you like to see your business listed on this page?

 If your business provides an interesting product or service to pilots, flight crews, aircraft, or users of the Dog Iron Ranch Airport, you should consider listing it here.  To start the listing process, click on the button below
 
Add a business
 

Other Pages about Dog Iron Ranch Airport

Update a link
 
Copyright © AirNav, LLC. All rights reserved. Privacy Policy  Contact